Time;durP1;ratioP1;P1;durP2;ratioP2;P2;SDS_P1;SDS_P2;PMS_P1;PMS_P2;Temp;Humidity;BMP_temperature;BMP_pressure;BME280_temperature;BME280_humidity;BME280_pressure;Samples;Min_cycle;Max_cycle;Signal;HPM_P1;HPM_P2
2023/04/10 00:00:55;;;;;;;;;18.00;16.00;;;;;14.17;47.00;101365.44;5056668;28;46779;-70
2023/04/10 00:03:21;;;;;;;;;17.67;16.67;;;;;14.76;46.86;101470.19;5059092;28;45504;-71
2023/04/10 00:05:47;;;;;;;;;15.67;15.67;;;;;14.82;46.85;101481.16;5060645;28;45501;-70
2023/04/10 00:08:12;;;;;;;;;16.00;13.67;;;;;14.56;46.62;101421.34;5060135;28;51098;-71
2023/04/10 00:10:38;;;;;;;;;16.67;14.00;;;;;14.73;46.66;101447.25;5059595;28;47328;-69
2023/04/10 00:13:04;;;;;;;;;20.67;18.00;;;;;14.63;46.62;101432.28;5060620;28;45268;-70
2023/04/10 00:15:29;;;;;;;;;18.00;17.33;;;;;14.78;46.93;101469.06;5058955;28;45324;-71
2023/04/10 00:17:54;;;;;;;;;14.00;13.33;;;;;13.90;46.92;101317.38;5060398;28;45232;-70
2023/04/10 00:20:21;;;;;;;;;15.00;13.33;;;;;14.75;46.97;101455.13;5059670;28;45915;-69
2023/04/10 00:22:48;;;;;;;;;17.67;16.00;;;;;14.53;47.00;101418.97;5060101;28;45241;-69
2023/04/10 00:25:13;;;;;;;;;14.33;14.00;;;;;14.71;47.08;101457.28;5061023;28;45418;-69
2023/04/10 00:27:38;;;;;;;;;17.67;15.33;;;;;14.60;47.18;101433.41;5059952;28;45324;-71
2023/04/10 00:30:05;;;;;;;;;17.00;15.67;;;;;14.64;47.12;101439.34;5049495;28;46548;-72
2023/04/10 00:32:30;;;;;;;;;16.33;16.33;;;;;14.63;46.99;101462.56;5059034;28;45727;-69
2023/04/10 00:34:55;;;;;;;;;19.67;17.00;;;;;14.02;47.45;101344.75;5058997;28;45164;-70
2023/04/10 00:37:21;;;;;;;;;16.67;14.67;;;;;14.57;47.33;101433.72;5041423;28;45272;-69
2023/04/10 00:39:46;;;;;;;;;15.67;15.67;;;;;14.56;47.44;101429.38;5059836;28;45739;-69
2023/04/10 00:42:11;;;;;;;;;15.00;14.33;;;;;14.55;47.08;101422.34;5059542;28;56143;-69
2023/04/10 00:44:37;;;;;;;;;14.33;13.00;;;;;14.43;47.15;101404.81;5059809;28;45383;-70
2023/04/10 00:47:06;;;;;;;;;18.67;15.00;;;;;14.54;47.75;101436.72;5059981;28;45257;-70
2023/04/10 00:49:32;;;;;;;;;17.33;15.00;;;;;14.24;47.25;101373.72;5058920;28;46640;-71
2023/04/10 00:51:57;;;;;;;;;14.33;14.33;;;;;14.51;47.47;101420.97;5059387;28;45226;-69
2023/04/10 00:54:23;;;;;;;;;14.00;12.67;;;;;13.88;47.68;101311.34;5059594;28;45274;-70
2023/04/10 00:56:49;;;;;;;;;18.33;16.00;;;;;14.42;47.21;101411.16;5060188;28;45303;-69
2023/04/10 00:59:15;;;;;;;;;14.67;14.00;;;;;13.61;47.47;101266.78;5058960;28;45923;-70
2023/04/10 01:01:40;;;;;;;;;17.67;14.33;;;;;14.11;47.47;101344.66;5059375;28;45328;-69
2023/04/10 01:04:07;;;;;;;;;16.33;16.33;;;;;13.84;47.49;101302.81;5059489;28;45265;-69
2023/04/10 01:06:38;;;;;;;;;14.33;14.33;;;;;14.48;47.29;101400.72;5059485;28;45514;-71
2023/04/10 01:09:19;;;;;;;;;14.00;11.00;;;;;14.32;47.59;101385.31;5058385;28;45550;-71
2023/04/10 01:11:53;;;;;;;;;17.33;14.67;;;;;14.37;47.94;101400.06;5059367;28;45411;-70
2023/04/10 01:14:42;;;;;;;;;11.67;11.67;;;;;14.29;47.97;101393.66;5058809;28;45301;-69
2023/04/10 01:17:40;;;;;;;;;15.67;14.33;;;;;14.24;48.02;101393.28;5060143;28;45675;-70
2023/04/10 01:20:13;;;;;;;;;14.33;14.00;;;;;14.25;47.89;101389.59;5041883;28;47652;-71
2023/04/10 01:22:51;;;;;;;;;15.67;13.67;;;;;14.30;47.82;101395.34;5058817;28;45435;-69
2023/04/10 01:25:38;;;;;;;;;20.00;19.00;;;;;14.19;47.79;101374.16;5058865;28;45491;-69
2023/04/10 01:28:18;;;;;;;;;16.33;13.67;;;;;14.14;47.83;101371.09;5059186;28;45318;-70
2023/04/10 01:30:47;;;;;;;;;12.67;11.33;;;;;13.51;47.64;101256.19;5042246;28;47162;-71
2023/04/10 01:33:17;;;;;;;;;11.67;11.67;;;;;14.24;48.08;101384.41;5038714;28;45475;-70
2023/04/10 01:35:48;;;;;;;;;13.67;13.67;;;;;14.22;48.07;101400.59;5054310;28;45211;-70
2023/04/10 01:38:16;;;;;;;;;17.00;17.00;;;;;14.16;48.39;101386.97;5039084;28;45471;-70
2023/04/10 01:40:48;;;;;;;;;14.33;12.67;;;;;13.54;48.21;101271.06;5020640;28;47500;-70
2023/04/10 01:43:15;;;;;;;;;15.33;15.33;;;;;14.22;48.28;101400.59;5038654;28;45457;-70
2023/04/10 01:45:42;;;;;;;;;16.00;14.33;;;;;14.16;48.28;101369.09;5038741;28;45322;-71
2023/04/10 01:48:08;;;;;;;;;15.00;13.67;;;;;14.21;48.13;101388.19;5039204;28;45198;-70
2023/04/10 01:50:35;;;;;;;;;16.33;15.00;;;;;14.15;48.34;101386.16;5037168;28;48443;-70
2023/04/10 01:53:03;;;;;;;;;15.00;13.33;;;;;13.64;48.41;101285.22;5038192;28;45604;-70
2023/04/10 01:55:30;;;;;;;;;14.67;14.67;;;;;14.09;48.36;101365.38;5021869;28;45570;-70
2023/04/10 01:57:56;;;;;;;;;14.67;14.67;;;;;13.33;48.08;101241.94;5049152;28;45285;-69
2023/04/10 02:00:22;;;;;;;;;18.33;15.33;;;;;13.99;48.42;101357.41;5055396;28;45757;-70
2023/04/10 02:02:48;;;;;;;;;14.33;14.33;;;;;14.10;48.46;101374.22;5040502;28;45327;-71
2023/04/10 02:05:15;;;;;;;;;19.00;16.00;;;;;13.39;48.56;101247.53;5058487;28;45220;-71
2023/04/10 02:07:49;;;;;;;;;14.33;14.33;;;;;13.22;48.05;101210.97;5058622;28;45557;-69
2023/04/10 02:10:23;;;;;;;;;14.33;14.33;;;;;14.14;48.42;101362.22;5058181;28;45758;-69
2023/04/10 02:12:59;;;;;;;;;14.67;13.33;;;;;14.11;48.34;101355.34;5058323;28;45345;-70
2023/04/10 02:15:27;;;;;;;;;11.67;11.00;;;;;14.20;48.43;101354.44;5050526;28;45446;-70
2023/04/10 02:17:55;;;;;;;;;12.00;11.67;;;;;13.80;47.82;101292.53;5038304;28;45509;-70
2023/04/10 02:20:22;;;;;;;;;15.33;14.00;;;;;14.09;48.46;101341.31;5037731;28;45814;-70
2023/04/10 02:22:48;;;;;;;;;13.67;12.33;;;;;14.11;48.57;101355.34;5038315;28;45290;-69
2023/04/10 02:25:15;;;;;;;;;15.67;15.67;;;;;14.07;48.70;101355.81;5043722;28;45545;-71
2023/04/10 02:27:40;;;;;;;;;14.33;14.33;;;;;14.05;48.51;101372.03;5060613;28;45175;-70
2023/04/10 02:30:06;;;;;;;;;14.33;11.67;;;;;13.89;48.69;101326.41;5037708;28;47902;-69
2023/04/10 02:32:32;;;;;;;;;15.33;14.33;;;;;14.04;48.33;101346.28;5020616;28;45449;-70
2023/04/10 02:34:57;;;;;;;;;17.67;16.67;;;;;13.50;48.75;101238.47;5054021;28;45324;-70
2023/04/10 02:37:23;;;;;;;;;13.67;13.67;;;;;13.45;48.77;101245.25;5058303;28;45395;-69
2023/04/10 02:39:49;;;;;;;;;15.00;12.33;;;;;14.00;48.81;101336.84;5057307;28;45575;-70
2023/04/10 02:42:15;;;;;;;;;18.00;15.33;;;;;13.09;48.91;101199.78;5057712;28;45297;-70
2023/04/10 02:44:40;;;;;;;;;13.33;13.33;;;;;13.36;49.10;101230.97;5058076;28;45442;-71
2023/04/10 02:47:13;;;;;;;;;13.00;12.00;;;;;13.73;49.19;101312.84;5091032;27;45788;-70
2023/04/10 02:49:38;;;;;;;;;18.33;15.67;;;;;13.83;49.25;101316.31;5072314;27;45572;-70
2023/04/10 02:52:04;;;;;;;;;13.67;13.67;;;;;13.94;49.04;101337.47;5074166;27;45478;-70
2023/04/10 02:54:29;;;;;;;;;18.00;15.00;;;;;13.58;48.86;101278.63;5075073;28;45455;-71
2023/04/10 02:56:58;;;;;;;;;16.00;15.67;;;;;13.06;49.16;101198.25;5073494;27;46713;-70
2023/04/10 02:59:24;;;;;;;;;16.00;16.00;;;;;13.57;48.94;101287.63;5058606;27;45267;-69
2023/04/10 03:01:51;;;;;;;;;17.00;15.67;;;;;13.44;49.66;101272.97;5053755;28;45542;-70
2023/04/10 03:04:16;;;;;;;;;15.33;15.33;;;;;13.59;49.30;101299.00;5053834;28;45543;-70
2023/04/10 03:06:42;;;;;;;;;16.67;14.67;;;;;13.58;49.54;101332.06;5053194;28;46569;-70
2023/04/10 03:09:07;;;;;;;;;17.67;17.33;;;;;13.60;50.08;101305.19;5052401;28;45380;-69
2023/04/10 03:11:33;;;;;;;;;14.33;14.33;;;;;13.64;49.88;101317.28;5053570;28;45408;-69
2023/04/10 03:13:58;;;;;;;;;17.33;15.33;;;;;13.26;50.31;101263.09;5069322;27;45415;-70
2023/04/10 03:16:24;;;;;;;;;21.67;21.67;;;;;13.20;50.25;101260.16;5069482;28;48572;-69
2023/04/10 03:18:49;;;;;;;;;15.00;15.00;;;;;13.53;49.78;101312.97;5067948;27;45344;-71
2023/04/10 03:21:15;;;;;;;;;14.00;12.67;;;;;13.44;50.05;101302.34;5071995;27;45442;-70
2023/04/10 03:23:40;;;;;;;;;15.00;14.33;;;;;13.43;50.24;101306.84;5072843;27;45251;-70
2023/04/10 03:26:07;;;;;;;;;18.33;16.00;;;;;13.21;50.42;101272.50;5063126;27;46309;-70
2023/04/10 03:28:34;;;;;;;;;15.67;15.00;;;;;13.31;50.29;101308.88;5053345;28;45249;-70
2023/04/10 03:31:01;;;;;;;;;10.67;10.33;;;;;13.25;50.97;101303.28;5053272;28;45301;-69
2023/04/10 03:33:26;;;;;;;;;10.33;10.33;;;;;13.22;50.74;101299.09;5053222;27;45563;-69
2023/04/10 03:35:52;;;;;;;;;20.67;17.33;;;;;12.32;50.65;101160.09;5051671;28;45554;-70
2023/04/10 03:38:17;;;;;;;;;14.67;13.33;;;;;12.38;50.92;101176.31;5061916;27;45773;-69
2023/04/10 03:40:43;;;;;;;;;18.67;15.67;;;;;13.02;51.05;101295.63;5071705;28;45290;-70
2023/04/10 03:43:08;;;;;;;;;15.33;14.67;;;;;13.00;51.55;101305.56;5073571;28;45422;-69
2023/04/10 03:45:33;;;;;;;;;15.67;14.67;;;;;12.92;51.35;101281.47;5079145;27;45622;-69
2023/04/10 03:47:59;;;;;;;;;15.67;15.67;;;;;12.99;51.24;101316.41;5093346;27;45353;-69
2023/04/10 03:50:24;;;;;;;;;15.33;15.00;;;;;12.94;51.27;101306.16;5093374;27;45969;-70
2023/04/10 03:52:50;;;;;;;;;17.67;15.00;;;;;12.47;51.73;101215.47;5093263;27;45415;-69
2023/04/10 03:55:18;;;;;;;;;17.00;16.00;;;;;12.82;51.70;101272.66;5090645;27;46265;-70
2023/04/10 03:57:45;;;;;;;;;17.33;15.00;;;;;12.52;51.90;101220.38;5063915;28;45444;-71
2023/04/10 04:00:12;;;;;;;;;17.00;15.67;;;;;12.84;51.76;101277.84;5059547;28;45264;-70
2023/04/10 04:02:37;;;;;;;;;19.00;17.33;;;;;12.76;51.71;101266.06;5060224;28;45313;-70
2023/04/10 04:05:03;;;;;;;;;17.67;17.67;;;;;12.78;51.93;101285.44;5059057;28;46532;-69
2023/04/10 04:07:28;;;;;;;;;17.67;15.33;;;;;12.34;52.01;101201.59;5059031;28;45464;-70
2023/04/10 04:09:54;;;;;;;;;18.00;18.00;;;;;12.77;52.17;101269.56;5059773;28;45507;-71
2023/04/10 04:12:19;;;;;;;;;16.67;14.33;;;;;12.38;52.37;101219.00;5041512;28;45547;-70
2023/04/10 04:14:45;;;;;;;;;18.00;17.67;;;;;12.71;52.15;101275.50;5062436;28;46041;-70
2023/04/10 04:17:10;;;;;;;;;17.33;17.33;;;;;12.73;52.29;101276.19;5078449;28;45466;-70
2023/04/10 04:19:36;;;;;;;;;15.33;14.33;;;;;12.58;52.31;101257.13;5059306;28;45214;-70
2023/04/10 04:22:01;;;;;;;;;17.00;15.00;;;;;12.73;52.18;101287.69;5059172;28;45501;-69
2023/04/10 04:24:26;;;;;;;;;16.00;16.00;;;;;12.74;52.26;101283.19;5059125;28;45522;-70
2023/04/10 04:26:52;;;;;;;;;13.00;13.00;;;;;12.75;51.58;101285.72;5059309;27;45518;-69
2023/04/10 04:29:17;;;;;;;;;13.33;13.00;;;;;12.68;51.77;101273.97;5059109;28;45950;-69
2023/04/10 04:31:42;;;;;;;;;15.67;15.67;;;;;12.71;52.02;101295.00;5059291;28;45372;-70
2023/04/10 04:34:08;;;;;;;;;14.67;14.67;;;;;12.75;51.96;101284.88;5058796;28;47404;-70
2023/04/10 04:36:33;;;;;;;;;15.00;14.00;;;;;12.54;51.58;101252.22;5074525;28;57026;-71
2023/04/10 04:38:58;;;;;;;;;15.00;14.33;;;;;11.70;51.83;101113.47;5078868;27;45316;-70
2023/04/10 04:41:24;;;;;;;;;14.67;14.67;;;;;12.26;52.14;101212.16;5079453;27;45469;-70
2023/04/10 04:43:52;;;;;;;;;17.33;15.33;;;;;12.44;52.66;101258.44;5078968;27;46183;-70
2023/04/10 04:46:17;;;;;;;;;16.33;16.33;;;;;12.55;52.71;101277.91;5078632;28;45540;-70
2023/04/10 04:48:42;;;;;;;;;14.00;13.00;;;;;12.51;52.26;101268.53;5079331;28;45398;-69
2023/04/10 04:51:08;;;;;;;;;17.00;16.00;;;;;10.46;52.35;100916.50;5083614;28;45345;-71
2023/04/10 04:53:33;;;;;;;;;15.00;13.00;;;;;12.44;52.33;101249.59;5078206;28;66254;-70
2023/04/10 04:55:59;;;;;;;;;14.67;13.00;;;;;12.73;52.30;101294.84;5077587;27;45478;-70
2023/04/10 04:58:24;;;;;;;;;15.33;14.33;;;;;12.56;52.08;101275.09;5079329;27;45435;-70
2023/04/10 05:00:53;;;;;;;;;16.33;14.00;;;;;12.57;52.22;101260.78;5078629;28;45555;-70
2023/04/10 05:03:19;;;;;;;;;16.33;14.67;;;;;12.63;51.82;101283.38;5074724;28;45785;-69
2023/04/10 05:05:44;;;;;;;;;15.00;14.00;;;;;12.10;52.30;101178.09;5058255;28;45534;-71
2023/04/10 05:08:10;;;;;;;;;12.33;12.33;;;;;12.88;52.05;101304.09;5059476;28;45300;-70
2023/04/10 05:10:35;;;;;;;;;14.33;14.00;;;;;12.91;51.85;101297.63;5058373;28;45269;-71
2023/04/10 05:13:01;;;;;;;;;12.33;11.00;;;;;12.79;51.73;101278.25;5057881;28;45935;-70
2023/04/10 05:15:26;;;;;;;;;12.67;12.33;;;;;12.72;52.19;101269.16;5058169;28;45455;-69
2023/04/10 05:17:52;;;;;;;;;13.67;12.67;;;;;12.24;51.74;101179.47;5058266;28;45328;-69
2023/04/10 05:20:18;;;;;;;;;17.00;15.33;;;;;12.80;51.46;101275.44;5059422;27;45209;-71
2023/04/10 05:22:43;;;;;;;;;14.00;13.00;;;;;12.87;51.70;101294.41;5059689;27;48558;-69
2023/04/10 05:25:09;;;;;;;;;19.67;17.00;;;;;12.99;51.50;101303.91;5077141;27;45490;-71
2023/04/10 05:27:35;;;;;;;;;21.67;19.67;;;;;12.92;51.28;101281.47;5078504;27;45513;-69
2023/04/10 05:30:00;;;;;;;;;22.33;20.33;;;;;12.98;52.16;101286.19;5078538;28;45261;-76
2023/04/10 05:32:26;;;;;;;;;19.67;17.33;;;;;13.06;51.21;101299.69;5060714;28;47190;-70
2023/04/10 05:34:51;;;;;;;;;20.33;19.33;;;;;12.95;51.71;101294.50;5073650;28;45416;-71
2023/04/10 05:37:17;;;;;;;;;22.00;20.33;;;;;13.00;51.67;101308.25;5077738;27;45344;-70
2023/04/10 05:39:42;;;;;;;;;20.00;20.00;;;;;13.10;51.24;101310.91;5059960;28;45547;-70
2023/04/10 05:42:07;;;;;;;;;21.33;21.33;;;;;13.12;51.43;101316.94;5078118;27;46432;-71
2023/04/10 05:44:33;;;;;;;;;22.33;20.67;;;;;13.15;51.43;101323.78;5077718;27;45252;-70
2023/04/10 05:46:58;;;;;;;;;27.33;24.00;;;;;12.33;51.23;101162.59;5058615;28;45535;-69
2023/04/10 05:49:23;;;;;;;;;28.67;22.67;;;;;13.23;51.58;101307.94;5077290;27;45416;-71
2023/04/10 05:51:50;;;;;;;;;22.33;22.00;;;;;13.17;51.58;101287.94;5097921;27;46328;-69
2023/04/10 05:54:16;;;;;;;;;23.00;23.00;;;;;13.25;51.43;101303.28;5098037;27;45232;-70
2023/04/10 05:56:41;;;;;;;;;21.67;21.67;;;;;13.26;51.63;101291.63;5094491;27;45315;-69
2023/04/10 05:59:07;;;;;;;;;30.00;23.33;;;;;13.30;51.39;101301.00;5078293;28;45454;-71
2023/04/10 06:01:32;;;;;;;;;21.33;16.67;;;;;13.28;51.42;101303.00;5076684;28;45371;-70
2023/04/10 06:03:58;;;;;;;;;23.67;20.67;;;;;13.39;51.12;101300.09;5077569;27;45403;-70
2023/04/10 06:06:25;;;;;;;;;21.67;20.67;;;;;13.29;51.30;101273.47;5056016;27;45308;-69
2023/04/10 06:08:50;;;;;;;;;22.67;21.67;;;;;13.46;51.12;101295.88;5063844;28;45618;-70
2023/04/10 06:11:16;;;;;;;;;20.33;19.00;;;;;13.15;50.78;101238.38;5058593;28;46576;-70
2023/04/10 06:13:41;;;;;;;;;15.00;15.00;;;;;13.54;51.30;101303.97;5054815;28;45498;-71
2023/04/10 06:16:07;;;;;;;;;18.67;18.67;;;;;12.82;51.23;101173.94;5076734;27;45409;-71
2023/04/10 06:18:33;;;;;;;;;22.67;20.67;;;;;13.69;50.91;101313.16;5058492;28;45552;-70
2023/04/10 06:21:00;;;;;;;;;16.00;14.67;;;;;13.14;50.71;101221.50;5076821;28;45975;-70
2023/04/10 06:23:27;;;;;;;;;18.67;16.67;;;;;13.81;51.23;101300.41;5057538;27;45502;-70
2023/04/10 06:25:53;;;;;;;;;19.00;19.00;;;;;13.90;50.37;101312.03;5067044;28;45514;-70
2023/04/10 06:28:18;;;;;;;;;19.67;15.67;;;;;13.99;50.05;101325.31;5062192;27;45414;-70
2023/04/10 06:30:43;;;;;;;;;20.00;17.33;;;;;13.98;50.03;101322.78;5056775;28;48619;-71
2023/04/10 06:33:09;;;;;;;;;18.33;17.33;;;;;14.09;50.06;101319.06;5074946;27;45369;-70
2023/04/10 06:35:35;;;;;;;;;18.00;16.33;;;;;13.99;50.23;101295.06;5078850;27;45533;-71
2023/04/10 06:38:00;;;;;;;;;18.00;16.33;;;;;14.03;50.12;101317.84;5069137;27;46115;-70
2023/04/10 06:40:28;;;;;;;;;18.00;16.67;;;;;13.85;49.91;101274.25;5081467;27;45648;-74
2023/04/10 06:42:54;;;;;;;;;20.33;18.33;;;;;14.13;50.01;101321.28;5077107;28;45292;-73
2023/04/10 06:45:20;;;;;;;;;18.00;17.67;;;;;13.79;49.91;101256.13;5077151;27;45287;-74
2023/04/10 06:47:45;;;;;;;;;18.33;16.00;;;;;14.29;49.45;101321.44;5077219;28;45320;-74
2023/04/10 06:50:11;;;;;;;;;20.00;18.33;;;;;14.05;49.64;101266.91;5077121;27;46975;-74
2023/04/10 06:52:36;;;;;;;;;14.33;13.67;;;;;13.66;49.40;101185.22;5076880;28;45486;-74
2023/04/10 06:55:01;;;;;;;;;17.00;15.33;;;;;13.69;49.34;101192.06;5078034;28;45556;-74
2023/04/10 06:57:27;;;;;;;;;20.00;17.67;;;;;13.75;49.59;101203.97;5075046;28;46541;-75
2023/04/10 06:59:53;;;;;;;;;16.33;16.33;;;;;14.23;49.68;101278.44;5092591;27;46812;-74
2023/04/10 07:02:19;;;;;;;;;17.67;17.67;;;;;14.30;49.97;101280.31;5077333;27;45424;-73
2023/04/10 07:04:44;;;;;;;;;22.00;19.00;;;;;14.24;49.43;101277.44;5076901;28;45412;-74
2023/04/10 07:07:12;;;;;;;;;15.00;15.00;;;;;14.42;49.72;101288.09;5076868;27;45380;-75
2023/04/10 07:09:37;;;;;;;;;16.67;15.67;;;;;14.29;49.58;101251.06;5076617;28;46358;-74
2023/04/10 07:12:02;;;;;;;;;15.67;14.67;;;;;13.55;49.30;101120.47;5077110;28;45222;-75
2023/04/10 07:14:28;;;;;;;;;14.00;13.67;;;;;14.39;49.08;101240.25;5077927;28;45303;-74
2023/04/10 07:16:53;;;;;;;;;18.00;17.67;;;;;14.57;48.82;101263.31;5059010;28;45580;-74
2023/04/10 07:19:19;;;;;;;;;15.67;14.00;;;;;14.70;49.10;101265.56;5079591;27;45776;-74
2023/04/10 07:21:48;;;;;;;;;15.67;15.67;;;;;14.82;48.45;101277.72;5076599;28;45473;-74
2023/04/10 07:24:17;;;;;;;;;19.00;18.00;;;;;14.20;48.01;101167.22;5076558;28;45267;-74
2023/04/10 07:26:46;;;;;;;;;16.33;13.33;;;;;15.02;48.30;101275.63;5074396;28;45627;-73
2023/04/10 07:29:12;;;;;;;;;15.67;15.33;;;;;15.16;47.78;101276.84;5076229;27;46555;-75
2023/04/10 07:31:37;;;;;;;;;16.00;14.67;;;;;15.01;47.62;101214.19;5076436;27;45450;-74
2023/04/10 07:34:03;;;;;;;;;16.00;15.33;;;;;15.45;47.43;101250.53;5080279;28;45413;-72
2023/04/10 07:36:28;;;;;;;;;15.67;15.33;;;;;15.46;47.12;101236.13;5092093;27;45466;-75
2023/04/10 07:38:54;;;;;;;;;13.00;13.00;;;;;15.56;47.20;101240.47;5082443;27;46060;-78
2023/04/10 07:41:21;;;;;;;;;15.67;14.33;;;;;15.46;46.61;101203.13;5080828;28;45454;-75
2023/04/10 07:43:46;;;;;;;;;15.67;14.67;;;;;15.51;46.24;101185.53;5058792;28;45452;-81
2023/04/10 07:46:11;;;;;;;;;16.33;14.33;;;;;16.05;45.93;101242.25;5038519;28;45593;-74
2023/04/10 07:48:37;;;;;;;;;14.33;14.33;;;;;16.25;45.69;101249.97;5039526;28;45508;-75
2023/04/10 07:51:02;;;;;;;;;19.33;16.33;;;;;16.33;45.26;101241.91;5039425;28;45451;-76
2023/04/10 07:53:28;;;;;;;;;12.67;12.67;;;;;16.33;45.02;101223.97;5039273;28;45261;-75
2023/04/10 07:55:53;;;;;;;;;17.67;12.67;;;;;16.48;44.55;101248.25;5039581;28;45233;-75
2023/04/10 07:58:19;;;;;;;;;14.67;11.67;;;;;16.54;45.17;101242.22;5039164;28;45447;-76
2023/04/10 08:00:44;;;;;;;;;12.00;10.67;;;;;15.66;44.74;101075.03;5038725;28;45254;-77
2023/04/10 08:03:11;;;;;;;;;11.00;11.00;;;;;16.02;44.44;101097.78;5039398;28;45294;-76
2023/04/10 08:05:37;;;;;;;;;16.00;16.00;;;;;17.34;43.46;101240.28;5039383;28;45480;-75
2023/04/10 08:08:02;;;;;;;;;13.00;12.67;;;;;17.74;42.53;101230.31;5038579;28;45509;-75
2023/04/10 08:10:27;;;;;;;;;12.00;10.33;;;;;18.18;41.32;101235.84;5039257;28;45414;-76
2023/04/10 08:12:53;;;;;;;;;10.00;10.00;;;;;17.97;41.09;101197.19;5039309;28;45398;-75
2023/04/10 08:15:18;;;;;;;;;14.33;13.67;;;;;18.01;40.80;101209.25;5039038;28;45543;-75
2023/04/10 08:17:43;;;;;;;;;11.67;9.67;;;;;18.04;40.68;101238.53;5038855;28;48951;-76
2023/04/10 08:20:10;;;;;;;;;11.33;10.00;;;;;17.12;40.74;101113.94;5039074;28;45477;-75
2023/04/10 08:22:35;;;;;;;;;10.67;10.67;;;;;17.28;41.38;101138.88;5037577;28;45498;-75
2023/04/10 08:25:02;;;;;;;;;6.67;6.00;;;;;17.46;41.04;101167.31;5039093;28;45561;-77
2023/04/10 08:27:27;;;;;;;;;12.67;11.00;;;;;17.83;40.81;101218.50;5038625;28;45906;-76
2023/04/10 08:29:52;;;;;;;;;12.00;11.67;;;;;17.52;40.81;101177.34;5038815;28;45223;-77
2023/04/10 08:32:18;;;;;;;;;12.67;11.33;;;;;17.80;41.32;101244.91;5039079;28;45535;-75
2023/04/10 08:34:43;;;;;;;;;5.67;5.00;;;;;17.61;41.67;101240.78;5038847;28;45151;-76
2023/04/10 08:37:11;;;;;;;;;9.67;9.67;;;;;17.38;41.48;101203.13;5037223;28;47712;-75
2023/04/10 08:39:36;;;;;;;;;9.33;9.33;;;;;17.50;41.83;101227.75;5038533;28;45927;-76
2023/04/10 08:42:02;;;;;;;;;9.67;8.33;;;;;17.66;41.86;101251.88;5038553;28;45451;-75
2023/04/10 08:44:27;;;;;;;;;12.00;10.00;;;;;17.62;41.90;101258.63;5038559;28;45489;-76
2023/04/10 08:46:57;;;;;;;;;10.67;10.67;;;;;17.54;42.12;101234.47;5054164;28;46088;-75
2023/04/10 08:49:30;;;;;;;;;9.33;9.33;;;;;17.62;42.25;101262.16;5058611;28;45257;-76
2023/04/10 08:51:57;;;;;;;;;10.33;9.67;;;;;17.31;43.08;101219.13;5058677;28;45285;-75
2023/04/10 08:54:34;;;;;;;;;10.00;8.67;;;;;17.24;43.43;101210.13;5058370;28;45239;-74
2023/04/10 08:57:00;;;;;;;;;11.67;9.67;;;;;17.52;43.13;101268.75;5057750;28;46398;-75
2023/04/10 08:59:29;;;;;;;;;8.33;7.67;;;;;17.30;43.19;101233.59;5058240;28;45466;-77
2023/04/10 09:01:56;;;;;;;;;10.00;10.00;;;;;17.55;43.34;101276.47;5058532;28;45587;-75
2023/04/10 09:04:23;;;;;;;;;10.33;9.33;;;;;17.49;43.73;101280.69;5058573;28;45509;-75
2023/04/10 09:06:48;;;;;;;;;8.33;8.33;;;;;17.45;43.94;101259.72;5057806;28;45475;-74
2023/04/10 09:09:14;;;;;;;;;13.00;11.33;;;;;16.77;44.17;101155.59;5058234;28;45255;-75
2023/04/10 09:11:51;;;;;;;;;14.00;13.00;;;;;17.45;44.40;101251.66;5058592;28;45464;-76
2023/04/10 09:14:21;;;;;;;;;11.67;10.67;;;;;17.60;43.99;101250.72;5058635;28;45612;-75
2023/04/10 09:16:47;;;;;;;;;9.33;9.33;;;;;17.32;43.54;101193.94;5058047;28;45545;-75
2023/04/10 09:19:12;;;;;;;;;10.00;10.00;;;;;17.58;43.96;101227.69;5058620;28;45247;-75
2023/04/10 09:21:37;;;;;;;;;10.33;9.00;;;;;15.49;44.08;100879.41;5058092;28;45246;-75
2023/04/10 09:24:03;;;;;;;;;11.00;10.67;;;;;17.18;43.86;101154.38;5056942;28;45253;-75
2023/04/10 09:26:31;;;;;;;;;10.67;8.67;;;;;17.49;44.09;101194.66;5057663;28;46296;-75
2023/04/10 09:29:01;;;;;;;;;11.00;11.00;;;;;17.45;43.88;101192.53;5057958;28;45566;-76
2023/04/10 09:31:29;;;;;;;;;8.33;7.00;;;;;17.28;44.07;101162.22;5073648;28;45386;-76
2023/04/10 09:34:16;;;;;;;;;10.00;8.33;;;;;17.70;44.07;101217.41;5056853;28;45478;-75
2023/04/10 09:36:54;;;;;;;;;10.67;10.00;;;;;17.48;44.39;101193.00;5058184;28;45525;-76
2023/04/10 09:39:20;;;;;;;;;12.33;10.33;;;;;17.66;45.22;101211.53;5057118;28;45463;-76
2023/04/10 09:41:54;;;;;;;;;9.00;9.00;;;;;17.70;45.32;101204.81;5056842;28;45308;-74
2023/04/10 09:44:30;;;;;;;;;11.33;10.00;;;;;16.47;44.31;100982.75;5058070;28;45348;-76
2023/04/10 09:47:17;;;;;;;;;9.33;9.33;;;;;17.89;44.48;101201.63;5075732;27;46475;-76
2023/04/10 09:49:51;;;;;;;;;13.33;12.67;;;;;17.98;44.06;101199.69;5076828;27;45244;-76
2023/04/10 09:52:27;;;;;;;;;10.00;10.00;;;;;17.91;43.97;101198.75;5078064;28;45385;-76
2023/04/10 09:54:55;;;;;;;;;13.00;10.00;;;;;17.72;43.93;101173.19;5059079;28;45294;-75
2023/04/10 09:57:22;;;;;;;;;9.67;9.00;;;;;17.63;43.77;101134.75;5077202;27;46499;-77
2023/04/10 09:59:50;;;;;;;;;14.33;11.00;;;;;18.02;43.74;101184.91;5059258;27;45509;-74
2023/04/10 10:02:20;;;;;;;;;13.00;11.33;;;;;18.05;43.67;101186.38;5077645;28;45378;-76
2023/04/10 10:04:46;;;;;;;;;10.00;8.00;;;;;17.66;43.01;101108.53;5077551;28;45440;-76
2023/04/10 10:07:15;;;;;;;;;9.00;9.00;;;;;17.93;43.21;101170.66;5077095;28;46112;-77
2023/04/10 10:09:41;;;;;;;;;11.33;9.00;;;;;18.03;42.84;101212.63;5076222;27;45529;-76
2023/04/10 10:12:08;;;;;;;;;11.00;9.33;;;;;18.06;42.93;101191.56;5077639;27;45228;-75
2023/04/10 10:14:56;;;;;;;;;8.00;8.00;;;;;17.47;43.31;101088.34;5077855;28;45241;-77
2023/04/10 10:17:25;;;;;;;;;10.33;10.33;;;;;18.03;42.90;101188.41;5076260;27;45400;-76
2023/04/10 10:20:04;;;;;;;;;12.67;10.33;;;;;17.84;43.54;101174.44;5077395;28;45518;-75
2023/04/10 10:22:31;;;;;;;;;6.00;6.00;;;;;17.86;43.13;101164.34;5058805;28;45509;-77
2023/04/10 10:24:59;;;;;;;;;10.67;9.00;;;;;17.64;43.25;101140.97;5077205;28;45315;-76
2023/04/10 10:27:26;;;;;;;;;9.33;9.33;;;;;17.25;43.35;101080.13;5076568;27;45517;-76
2023/04/10 10:29:53;;;;;;;;;7.00;7.00;;;;;17.58;43.20;101144.34;5077487;28;45398;-77
2023/04/10 10:32:20;;;;;;;;;7.67;7.67;;;;;17.60;43.02;101148.53;5077367;28;45574;-76
2023/04/10 10:34:46;;;;;;;;;7.33;7.33;;;;;17.17;43.04;101076.63;5077405;28;45346;-76
2023/04/10 10:37:12;;;;;;;;;10.67;9.33;;;;;17.47;43.02;101121.44;5058315;28;48439;-76
2023/04/10 10:39:55;;;;;;;;;6.33;6.33;;;;;17.62;43.21;101151.91;5076747;28;45521;-76
2023/04/10 10:42:31;;;;;;;;;10.00;9.33;;;;;17.30;43.40;101107.28;5077341;28;45467;-75
2023/04/10 10:45:09;;;;;;;;;9.67;8.33;;;;;17.41;44.35;101140.13;5077713;28;45541;-75
2023/04/10 10:47:42;;;;;;;;;10.67;9.67;;;;;17.27;44.06;101115.69;5059803;27;47452;-74
2023/04/10 10:50:08;;;;;;;;;9.33;9.33;;;;;15.46;43.80;100812.75;5077346;27;45439;-75
2023/04/10 10:52:44;;;;;;;;;10.67;10.33;;;;;17.45;43.75;101128.00;5076897;27;45458;-76
2023/04/10 10:55:21;;;;;;;;;7.00;7.00;;;;;17.56;44.04;101146.38;5077151;28;45374;-75
2023/04/10 10:57:52;;;;;;;;;10.00;8.00;;;;;17.17;43.57;101082.84;5065238;28;48488;-76
2023/04/10 11:00:21;;;;;;;;;5.00;4.00;;;;;17.64;43.58;101143.66;5055018;28;45592;-76
2023/04/10 11:03:19;;;;;;;;;5.33;2.00;;;;;17.63;42.92;101131.22;5055192;28;45426;-74
2023/04/10 11:05:49;;;;;;;;;7.00;7.00;;;;;17.63;42.92;101142.00;5056239;28;45223;-75
2023/04/10 11:08:15;;;;;;;;;7.00;7.00;;;;;16.95;42.62;101019.19;5057769;28;46495;-75
2023/04/10 11:11:02;;;;;;;;;9.33;8.67;;;;;17.75;42.34;101137.03;5059586;28;45267;-76
2023/04/10 11:13:28;;;;;;;;;6.67;6.67;;;;;17.62;41.68;101105.38;5060155;28;45258;-75